Time;durP1;ratioP1;P1;durP2;ratioP2;P2;SDS_P1;SDS_P2;PMS_P1;PMS_P2;Temp;Humidity;BMP_temperature;BMP_pressure;BME280_temperature;BME280_humidity;BME280_pressure;Samples;Min_cycle;Max_cycle;Signal;HPM_P1;HPM_P2
2021/07/19 00:02:20;;;;;;;17.92;13.75;;;;;;;27.36;64.75;99895.20;1790997;78;21106;-61
2021/07/19 00:04:47;;;;;;;28.67;15.10;;;;;;;27.32;65.01;99898.64;1787529;78;21741;-61
2021/07/19 00:07:15;;;;;;;17.77;13.88;;;;;;;27.27;65.24;99901.23;1787453;78;21030;-61
2021/07/19 00:09:44;;;;;;;17.90;13.48;;;;;;;27.20;65.43;99896.83;1789512;78;21062;-61
2021/07/19 00:12:15;;;;;;;18.77;13.25;;;;;;;27.19;65.76;99894.36;1777497;78;21104;-61
2021/07/19 00:14:46;;;;;;;18.45;12.55;;;;;;;27.23;65.78;99899.04;1784071;78;21022;-61
2021/07/19 00:17:17;;;;;;;17.57;13.30;;;;;;;27.23;65.80;99893.64;1783891;78;21409;-61
2021/07/19 00:19:46;;;;;;;16.80;13.88;;;;;;;27.23;65.93;99900.39;1766847;78;21101;-61
2021/07/19 00:22:15;;;;;;;23.80;14.73;;;;;;;27.21;65.89;99900.33;1789200;78;21105;-61
2021/07/19 00:24:41;;;;;;;17.67;14.05;;;;;;;27.17;65.92;99893.80;1787444;78;22058;-61
2021/07/19 00:27:10;;;;;;;24.23;15.10;;;;;;;27.11;65.82;99896.92;1787479;78;21094;-62
2021/07/19 00:29:38;;;;;;;22.48;15.03;;;;;;;27.06;65.72;99888.73;1796038;78;21092;-61
2021/07/19 00:32:07;;;;;;;19.45;14.13;;;;;;;27.04;65.73;99888.98;1766189;78;21524;-61
2021/07/19 00:34:37;;;;;;;17.95;14.63;;;;;;;27.05;65.73;99887.93;1793747;78;21855;-61
2021/07/19 00:37:04;;;;;;;20.17;14.00;;;;;;;27.09;65.58;99882.86;1782628;78;21105;-61
2021/07/19 00:39:32;;;;;;;23.07;14.15;;;;;;;27.10;65.46;99887.72;1785827;77;21548;-61
2021/07/19 00:41:59;;;;;;;21.00;14.07;;;;;;;27.03;65.56;99886.02;1731982;80;21208;-61
2021/07/19 00:44:25;;;;;;;21.27;14.15;;;;;;;26.97;65.63;99891.02;1743124;80;21162;-61
2021/07/19 00:46:53;;;;;;;20.72;14.18;;;;;;;26.96;65.73;99887.22;1735484;80;21136;-61
2021/07/19 00:49:22;;;;;;;16.97;12.70;;;;;;;26.95;65.68;99886.41;1750920;79;21048;-62
2021/07/19 00:51:52;;;;;;;20.62;14.03;;;;;;;26.94;65.56;99882.05;1735536;79;21069;-62
2021/07/19 00:54:20;;;;;;;20.72;13.68;;;;;;;26.93;65.69;99880.95;1745975;80;21127;-62
2021/07/19 00:56:50;;;;;;;16.23;13.15;;;;;;;26.90;66.00;99881.42;1747433;80;21078;-61
2021/07/19 00:59:18;;;;;;;18.48;13.83;;;;;;;26.88;66.46;99881.67;1725238;80;21182;-61
2021/07/19 01:01:46;;;;;;;16.70;13.43;;;;;;;26.85;66.58;99882.98;1710579;82;21161;-61
2021/07/19 01:04:14;;;;;;;17.27;12.33;;;;;;;26.84;66.44;99884.04;1739233;81;21129;-62
2021/07/19 01:06:41;;;;;;;16.37;12.20;;;;;;;26.84;66.27;99879.18;1775183;78;21113;-61
2021/07/19 01:09:08;;;;;;;17.07;13.40;;;;;;;26.80;66.22;99880.74;1797022;77;21010;-62
2021/07/19 01:11:36;;;;;;;19.77;13.38;;;;;;;26.75;66.40;99877.41;1805690;78;21634;-61
2021/07/19 01:14:04;;;;;;;20.05;12.75;;;;;;;26.71;66.49;99871.37;1723556;80;21505;-61
2021/07/19 01:16:30;;;;;;;14.87;12.43;;;;;;;26.67;66.52;99875.09;1711763;82;21047;-61
2021/07/19 01:18:58;;;;;;;16.40;12.50;;;;;;;26.65;66.56;99875.88;1747269;80;21081;-61
2021/07/19 01:21:58;;;;;;;20.70;14.03;;;;;;;26.66;66.45;99878.34;1775526;78;21664;-61
2021/07/19 01:24:43;;;;;;;20.68;13.05;;;;;;;26.69;66.22;99881.06;1795324;78;21055;-62
2021/07/19 01:27:34;;;;;;;18.25;13.40;;;;;;;26.68;66.08;99880.26;1778181;78;21085;-62
2021/07/19 01:30:04;;;;;;;19.65;14.55;;;;;;;26.62;65.92;99876.33;1758464;78;21026;-62
2021/07/19 01:32:33;;;;;;;20.62;13.28;;;;;;;26.50;66.09;99870.44;1792115;78;21086;-62
2021/07/19 01:35:00;;;;;;;18.85;13.38;;;;;;;26.42;66.29;99873.52;1795952;78;21033;-62
2021/07/19 01:37:26;;;;;;;22.07;14.87;;;;;;;26.37;66.52;99870.72;1771410;78;21551;-62
2021/07/19 01:40:08;;;;;;;16.37;12.63;;;;;;;26.37;66.62;99874.77;1714414;78;21588;-62
2021/07/19 01:42:36;;;;;;;16.20;12.03;;;;;;;26.36;66.75;99869.09;1790755;78;21104;-62
2021/07/19 01:45:06;;;;;;;14.18;11.20;;;;;;;26.34;66.74;99868.49;1786223;78;21025;-62
2021/07/19 01:47:34;;;;;;;17.00;12.70;;;;;;;26.33;66.65;99881.71;1728265;79;21564;-62
2021/07/19 01:50:00;;;;;;;16.73;14.03;;;;;;;26.25;66.69;99877.50;1734776;79;21144;-62
2021/07/19 01:52:29;;;;;;;17.55;12.65;;;;;;;26.21;66.57;99879.05;1743511;80;21109;-62
2021/07/19 01:54:58;;;;;;;19.37;13.15;;;;;;;26.16;66.53;99875.41;1769987;78;21006;-62
2021/07/19 01:57:25;;;;;;;14.98;12.50;;;;;;;26.12;66.56;99879.92;1790127;78;21583;-62
2021/07/19 01:59:55;;;;;;;16.90;12.80;;;;;;;26.13;66.69;99875.37;1777869;78;21555;-62
2021/07/19 02:02:24;;;;;;;18.73;13.10;;;;;;;26.14;66.81;99872.95;1722952;80;21102;-62
2021/07/19 02:04:52;;;;;;;16.27;12.90;;;;;;;26.15;66.76;99869.20;1741340;80;21097;-62
2021/07/19 02:07:21;;;;;;;20.68;13.70;;;;;;;26.13;66.85;99865.93;1708150;82;21114;-62
2021/07/19 02:09:51;;;;;;;17.37;13.48;;;;;;;26.13;66.88;99870.78;1709202;81;21780;-62
2021/07/19 02:12:38;;;;;;;15.88;12.82;;;;;;;26.09;67.00;99872.84;1761335;80;21126;-63
2021/07/19 02:15:15;;;;;;;15.23;13.40;;;;;;;26.10;66.92;99874.48;1747654;80;21043;-62
2021/07/19 02:17:51;;;;;;;18.12;14.23;;;;;;;26.15;66.77;99874.59;1744870;80;21151;-62
2021/07/19 02:20:19;;;;;;;16.40;13.45;;;;;;;26.17;66.55;99881.91;1723589;81;21078;-62
2021/07/19 02:22:47;;;;;;;22.82;14.35;;;;;;;26.17;66.46;99882.45;1729461;80;21330;-62
2021/07/19 02:25:33;;;;;;;19.15;14.25;;;;;;;26.16;66.46;99880.80;1720580;81;21078;-62
2021/07/19 02:28:00;;;;;;;20.77;13.98;;;;;;;26.12;66.29;99874.52;1724837;81;21492;-62
2021/07/19 02:30:27;;;;;;;18.55;13.65;;;;;;;26.10;66.21;99880.69;1691454;83;21098;-62
2021/07/19 02:32:56;;;;;;;15.75;13.60;;;;;;;26.10;66.15;99879.34;1721485;82;21118;-62
2021/07/19 02:35:24;;;;;;;17.80;13.55;;;;;;;26.15;65.95;99884.03;1722599;81;21145;-62
2021/07/19 02:37:53;;;;;;;19.80;13.83;;;;;;;26.13;65.83;99886.16;1784992;78;21045;-62
2021/07/19 02:40:22;;;;;;;23.02;14.68;;;;;;;26.11;65.69;99888.27;1781303;78;21145;-63
2021/07/19 02:42:59;;;;;;;25.20;15.30;;;;;;;26.06;65.86;99894.37;1753573;79;21073;-63
2021/07/19 02:45:27;;;;;;;19.85;14.50;;;;;;;25.99;66.08;99893.69;1756982;78;21745;-62
2021/07/19 02:47:54;;;;;;;22.77;16.35;;;;;;;25.93;66.33;99890.55;1787924;78;22070;-62
2021/07/19 02:50:24;;;;;;;25.00;16.05;;;;;;;25.92;66.34;99897.82;1786808;78;21725;-62
2021/07/19 02:52:52;;;;;;;24.63;16.12;;;;;;;25.95;66.19;99901.94;1795878;78;21076;-63
2021/07/19 02:55:19;;;;;;;24.57;17.77;;;;;;;25.93;66.29;99898.09;1792984;78;21113;-62
2021/07/19 02:57:47;;;;;;;23.07;16.27;;;;;;;25.86;66.50;99901.98;1751299;80;21095;-63
2021/07/19 03:00:17;;;;;;;26.65;17.50;;;;;;;25.81;66.72;99902.69;1793365;77;23284;-62
2021/07/19 03:02:53;;;;;;;22.00;16.55;;;;;;;25.82;66.85;99906.19;1797915;78;21549;-62
2021/07/19 03:05:20;;;;;;;25.12;17.12;;;;;;;25.83;67.04;99906.50;1772654;78;21556;-63
2021/07/19 03:07:53;;;;;;;23.12;16.20;;;;;;;25.90;66.97;99904.48;1740345;79;21505;-66
2021/07/19 03:10:22;;;;;;;22.52;16.90;;;;;;;25.98;66.74;99906.86;1768955;78;21062;-63
2021/07/19 03:12:58;;;;;;;24.12;16.95;;;;;;;26.05;66.51;99916.98;1799907;78;21152;-64
2021/07/19 03:15:28;;;;;;;22.17;17.00;;;;;;;26.12;66.38;99911.46;1782304;78;21113;-64
2021/07/19 03:17:57;;;;;;;24.67;17.95;;;;;;;26.17;66.29;99910.76;1754111;79;21070;-63
2021/07/19 03:20:23;;;;;;;24.67;17.17;;;;;;;26.19;66.15;99904.59;1787865;78;21519;-64
2021/07/19 03:22:52;;;;;;;26.90;17.87;;;;;;;26.23;66.22;99912.52;1786473;78;21125;-64
2021/07/19 03:25:26;;;;;;;25.43;18.48;;;;;;;26.31;66.23;99914.84;1773353;78;21963;-63
2021/07/19 03:27:53;;;;;;;29.20;18.62;;;;;;;26.40;65.85;99909.36;1784775;78;21682;-64
2021/07/19 03:30:20;;;;;;;22.90;18.60;;;;;;;26.49;65.53;99911.98;1790940;77;21092;-64
2021/07/19 03:32:50;;;;;;;33.00;20.40;;;;;;;26.54;65.37;99915.83;1781784;78;21365;-64
2021/07/19 03:35:24;;;;;;;26.95;18.98;;;;;;;26.57;65.45;99917.51;1703241;82;21070;-65
2021/07/19 03:37:52;;;;;;;28.45;20.30;;;;;;;26.59;65.30;99920.78;1711131;82;21165;-64
2021/07/19 03:40:22;;;;;;;24.90;18.57;;;;;;;26.61;65.32;99920.03;1735931;80;21117;-64
2021/07/19 03:42:56;;;;;;;24.90;17.98;;;;;;;26.66;65.42;99920.16;1749257;80;21153;-65
2021/07/19 03:45:22;;;;;;;25.65;17.48;;;;;;;26.76;65.46;99923.56;1784541;78;21098;-63
2021/07/19 03:47:49;;;;;;;20.60;17.32;;;;;;;26.84;65.44;99927.23;1734183;80;21094;-64
2021/07/19 03:50:16;;;;;;;23.00;18.55;;;;;;;26.90;65.52;99928.16;1703782;81;21489;-64
2021/07/19 03:52:46;;;;;;;23.32;17.52;;;;;;;26.97;65.45;99928.02;1772148;79;21973;-64
2021/07/19 03:55:15;;;;;;;23.45;18.05;;;;;;;27.00;65.54;99927.50;1718414;81;21138;-65
2021/07/19 03:57:42;;;;;;;20.32;16.62;;;;;;;27.03;65.56;99932.42;1794974;77;21085;-64
2021/07/19 04:00:15;;;;;;;21.50;18.10;;;;;;;27.01;65.82;99934.55;1759865;79;21086;-63
2021/07/19 04:02:44;;;;;;;24.80;17.48;;;;;;;26.97;66.20;99941.51;1799842;78;21492;-64
2021/07/19 04:05:14;;;;;;;21.23;16.62;;;;;;;26.97;66.63;99938.81;1758819;79;21564;-63
2021/07/19 04:07:44;;;;;;;20.25;16.95;;;;;;;26.98;67.12;99940.43;1779849;78;21164;-63
2021/07/19 04:10:16;;;;;;;23.47;18.27;;;;;;;26.98;67.45;99948.53;1797580;78;21069;-63
2021/07/19 04:12:46;;;;;;;22.62;18.98;;;;;;;26.97;66.99;99950.42;1786808;78;21074;-62
2021/07/19 04:15:15;;;;;;;24.87;17.67;;;;;;;26.97;67.02;99948.26;1763793;79;21758;-64
2021/07/19 04:17:44;;;;;;;22.27;17.62;;;;;;;26.98;67.11;99942.62;1759954;79;21566;-63
2021/07/19 04:20:14;;;;;;;23.07;15.93;;;;;;;27.02;67.13;99943.76;1784791;78;21046;-64
2021/07/19 04:22:42;;;;;;;18.55;15.63;;;;;;;27.08;67.16;99943.84;1793361;77;21117;-65
2021/07/19 04:25:13;;;;;;;17.82;13.55;;;;;;;27.09;67.46;99946.31;1790935;78;21030;-65
2021/07/19 04:27:42;;;;;;;18.05;13.43;;;;;;;27.10;67.80;99943.07;1776329;78;22279;-65
2021/07/19 04:30:10;;;;;;;24.32;15.10;;;;;;;27.10;67.60;99942.56;1788882;78;21571;-64
2021/07/19 04:32:43;;;;;;;20.57;15.40;;;;;;;27.13;66.81;99944.75;1754312;78;21546;-64
2021/07/19 04:35:21;;;;;;;19.92;15.98;;;;;;;27.11;66.62;99945.53;1788516;78;21041;-64
2021/07/19 04:37:52;;;;;;;20.35;14.75;;;;;;;27.12;66.77;99946.34;1784591;78;21640;-64
2021/07/19 04:40:22;;;;;;;24.75;16.37;;;;;;;27.10;66.47;99945.26;1795039;78;21129;-63
2021/07/19 04:42:49;;;;;;;22.25;16.17;;;;;;;27.11;66.36;99941.48;1785251;78;21061;-63
2021/07/19 04:45:18;;;;;;;20.40;15.55;;;;;;;27.17;65.66;99937.01;1791533;78;21066;-63
2021/07/19 04:47:45;;;;;;;28.50;18.52;;;;;;;27.22;65.33;99941.95;1789637;78;21090;-63
2021/07/19 04:50:17;;;;;;;22.32;16.55;;;;;;;27.27;64.52;99945.28;1775961;78;21089;-62
2021/07/19 04:52:45;;;;;;;24.30;18.30;;;;;;;27.25;64.45;99942.82;1804480;78;21116;-62
2021/07/19 04:55:20;;;;;;;24.25;17.73;;;;;;;27.23;64.21;99943.60;1771224;78;21429;-62
2021/07/19 04:57:52;;;;;;;25.23;16.33;;;;;;;27.20;64.10;99942.73;1795565;77;21097;-63
2021/07/19 05:00:19;;;;;;;23.57;17.85;;;;;;;27.19;64.82;99941.63;1780581;78;21126;-63
2021/07/19 05:02:46;;;;;;;22.98;16.30;;;;;;;27.24;64.72;99941.17;1772886;78;21065;-60
2021/07/19 05:05:16;;;;;;;23.57;15.85;;;;;;;27.33;64.41;99937.56;1783450;78;21196;-65
2021/07/19 05:07:44;;;;;;;26.62;17.40;;;;;;;27.42;64.05;99929.89;1754430;80;21101;-64
2021/07/19 05:10:14;;;;;;;25.37;16.50;;;;;;;27.48;64.15;99916.73;1748533;79;21074;-62
2021/07/19 05:12:44;;;;;;;22.42;17.77;;;;;;;27.56;64.07;99919.03;1749452;80;21122;-64
2021/07/19 05:15:14;;;;;;;25.25;16.23;;;;;;;27.65;63.56;99922.13;1754586;80;21059;-64
2021/07/19 05:17:41;;;;;;;26.05;16.23;;;;;;;27.69;63.66;99923.28;1744478;80;21096;-59
2021/07/19 05:20:18;;;;;;;22.90;16.07;;;;;;;27.79;63.32;99923.44;1791589;78;21180;-63
2021/07/19 05:22:52;;;;;;;25.08;16.32;;;;;;;27.90;62.77;99919.52;1795764;78;21061;-63
2021/07/19 05:25:27;;;;;;;19.47;14.93;;;;;;;28.00;62.36;99912.93;1789364;78;21034;-64
2021/07/19 05:28:00;;;;;;;;;;;;;;;28.05;61.51;99910.84;1743563;80;21602;-64
2021/07/19 05:30:26;;;;;;;23.80;15.80;;;;;;;28.05;61.88;99916.25;1792478;78;23295;-64
2021/07/19 05:32:54;;;;;;;19.55;13.55;;;;;;;28.01;61.45;99918.63;1787342;78;21041;-63
2021/07/19 05:35:20;;;;;;;17.90;15.35;;;;;;;28.04;61.49;99924.91;1787204;79;21084;-62
2021/07/19 05:37:48;;;;;;;21.27;15.45;;;;;;;28.04;60.79;99920.84;1794611;77;21046;-63
2021/07/19 05:40:15;;;;;;;18.45;14.70;;;;;;;28.03;60.81;99917.04;1762272;78;21097;-64
2021/07/19 05:42:42;;;;;;;17.90;13.28;;;;;;;28.06;60.95;99931.39;1803862;79;21445;-64
2021/07/19 05:45:09;;;;;;;20.15;14.93;;;;;;;28.12;60.58;99924.98;1796718;78;21065;-63
2021/07/19 05:47:36;;;;;;;19.60;15.58;;;;;;;28.15;60.52;99927.20;1795057;78;21130;-65
2021/07/19 05:50:04;;;;;;;20.72;13.98;;;;;;;28.19;60.69;99924.80;1786547;78;21034;-64
2021/07/19 05:52:30;;;;;;;20.90;15.00;;;;;;;28.21;60.97;99919.95;1789956;78;21085;-63
2021/07/19 05:54:56;;;;;;;19.00;14.60;;;;;;;28.25;60.77;99919.21;1806000;77;21193;-63
2021/07/19 05:57:27;;;;;;;19.90;13.43;;;;;;;28.31;60.94;99916.02;1788756;78;21097;-64
2021/07/19 05:59:56;;;;;;;20.10;16.25;;;;;;;28.41;60.40;99913.98;1796432;78;21108;-64
2021/07/19 06:02:27;;;;;;;25.15;15.68;;;;;;;28.50;60.00;99909.23;1771276;77;21561;-64
2021/07/19 06:04:54;;;;;;;24.27;14.28;;;;;;;28.59;59.68;99910.97;1786857;78;21061;-64
2021/07/19 06:07:20;;;;;;;18.37;15.75;;;;;;;28.63;59.93;99917.53;1777448;78;21097;-63
2021/07/19 06:09:47;;;;;;;20.92;15.98;;;;;;;28.68;59.44;99922.16;1783824;78;21066;-66
2021/07/19 06:12:13;;;;;;;19.32;15.50;;;;;;;28.70;59.71;99924.91;1760793;79;21121;-64
2021/07/19 06:14:41;;;;;;;17.65;14.20;;;;;;;28.76;59.16;99925.77;1796166;77;21108;-64
2021/07/19 06:17:07;;;;;;;18.77;14.70;;;;;;;28.81;58.94;99926.38;1788583;78;21107;-64
2021/07/19 06:19:33;;;;;;;18.35;13.28;;;;;;;28.83;58.83;99935.05;1789883;78;21183;-63
2021/07/19 06:22:00;;;;;;;16.20;13.80;;;;;;;28.89;58.07;99934.04;1794169;78;20991;-62
2021/07/19 06:24:26;;;;;;;20.88;14.87;;;;;;;28.98;57.57;99935.20;1764876;78;21053;-64
2021/07/19 06:26:52;;;;;;;19.45;14.47;;;;;;;29.09;58.20;99936.94;1800017;78;21049;-62
2021/07/19 06:29:19;;;;;;;19.92;14.85;;;;;;;29.14;58.07;99938.08;1790393;78;21116;-64
2021/07/19 06:31:46;;;;;;;17.77;13.75;;;;;;;29.18;57.15;99935.16;1781586;78;21184;-62
2021/07/19 06:34:12;;;;;;;17.67;13.50;;;;;;;29.21;56.63;99936.00;1800261;77;21094;-63
2021/07/19 06:36:40;;;;;;;17.35;13.45;;;;;;;29.27;56.17;99933.63;1782407;77;21073;-63
2021/07/19 06:39:08;;;;;;;18.17;14.30;;;;;;;29.33;55.68;99934.47;1799016;78;21057;-63
2021/07/19 06:41:35;;;;;;;24.40;15.03;;;;;;;29.38;56.57;99939.38;1791277;78;20982;-64
2021/07/19 06:44:03;;;;;;;17.52;14.63;;;;;;;29.46;56.96;99939.46;1794732;79;21313;-63
2021/07/19 06:46:29;;;;;;;18.82;14.60;;;;;;;29.54;57.18;99936.27;1783682;77;21042;-64
2021/07/19 06:48:56;;;;;;;20.97;14.25;;;;;;;29.64;56.93;99927.41;1787454;78;21026;-64
2021/07/19 06:51:22;;;;;;;24.80;13.55;;;;;;;29.76;56.29;99922.59;1786346;78;21513;-63
2021/07/19 06:53:48;;;;;;;20.50;14.30;;;;;;;29.86;55.34;99930.53;1777716;78;21144;-64
2021/07/19 06:56:15;;;;;;;23.07;15.48;;;;;;;29.92;55.72;99936.27;1789834;78;21120;-63
2021/07/19 07:01:52;;;;;;;28.35;16.40;;;;;;;30.15;56.42;99927.72;1793977;78;22772;-62
2021/07/19 07:04:18;;;;;;;18.12;15.45;;;;;;;30.20;56.45;99926.93;1769926;80;21066;-62
2021/07/19 07:06:44;;;;;;;21.70;16.00;;;;;;;30.27;56.15;99928.05;1739235;80;21189;-63
2021/07/19 07:09:11;;;;;;;27.15;16.35;;;;;;;30.32;55.67;99932.14;1768667;80;21088;-62
2021/07/19 07:11:38;;;;;;;24.50;17.17;;;;;;;30.35;55.00;99931.61;1776288;80;21065;-61
2021/07/19 07:14:05;;;;;;;26.82;16.57;;;;;;;30.37;54.99;99932.19;1719798;81;21420;-62
2021/07/19 07:16:32;;;;;;;19.67;15.25;;;;;;;30.40;54.67;99930.30;1699993;82;21058;-62
2021/07/19 07:19:00;;;;;;;20.88;15.80;;;;;;;30.44;54.19;99926.52;1707067;83;21201;-61
2021/07/19 07:21:27;;;;;;;26.95;15.30;;;;;;;30.48;54.42;99925.73;1711149;82;21458;-61
2021/07/19 07:23:54;;;;;;;21.62;15.68;;;;;;;30.51;54.15;99922.48;1716270;81;21125;-62
2021/07/19 07:26:20;;;;;;;21.33;15.65;;;;;;;30.56;53.71;99921.66;1711097;82;21070;-61
2021/07/19 07:28:47;;;;;;;20.90;14.50;;;;;;;30.59;54.39;99928.47;1725159;81;21061;-62
2021/07/19 07:31:14;;;;;;;17.98;13.80;;;;;;;30.66;53.79;99924.95;1712777;81;21232;-61
2021/07/19 07:33:41;;;;;;;21.48;13.18;;;;;;;30.77;53.27;99931.24;1731190;82;21077;-62
2021/07/19 07:36:07;;;;;;;17.42;12.03;;;;;;;30.81;52.26;99916.83;1712390;82;21589;-62
2021/07/19 07:38:34;;;;;;;18.30;12.30;;;;;;;30.87;51.85;99919.84;1681860;82;21065;-61
2021/07/19 07:41:02;;;;;;;24.20;13.70;;;;;;;30.89;51.17;99916.31;1717157;81;21090;-61
2021/07/19 07:43:29;;;;;;;21.25;13.43;;;;;;;30.92;51.22;99908.98;1702583;82;21140;-61
2021/07/19 07:45:55;;;;;;;19.90;12.90;;;;;;;30.96;51.29;99909.84;1693377;82;21360;-62
2021/07/19 07:48:22;;;;;;;14.78;12.58;;;;;;;31.00;50.60;99900.05;1715066;81;21125;-61
2021/07/19 07:50:48;;;;;;;21.48;13.98;;;;;;;31.03;50.42;99892.72;1708557;82;21081;-61
2021/07/19 07:53:14;;;;;;;20.50;12.73;;;;;;;31.08;50.86;99888.64;1689136;82;21134;-61
2021/07/19 07:55:42;;;;;;;19.80;13.65;;;;;;;31.12;50.80;99884.31;1720221;81;21144;-62
2021/07/19 07:58:08;;;;;;;21.77;14.58;;;;;;;31.18;51.70;99873.70;1717335;81;21125;-62
2021/07/19 08:00:35;;;;;;;17.62;12.50;;;;;;;31.23;50.87;99872.33;1707442;81;21122;-62
2021/07/19 08:03:01;;;;;;;19.12;13.62;;;;;;;31.26;51.18;99863.64;1707302;83;21047;-63
2021/07/19 08:05:28;;;;;;;22.25;13.65;;;;;;;31.30;50.93;99852.51;1754609;79;22481;-62
2021/07/19 08:07:55;;;;;;;19.65;12.63;;;;;;;31.35;51.02;99841.34;1742627;80;21550;-62
2021/07/19 08:10:21;;;;;;;21.30;11.48;;;;;;;31.36;50.41;99834.84;1762735;79;21050;-62
2021/07/19 08:12:50;;;;;;;17.52;12.23;;;;;;;31.39;50.88;99823.38;1757782;80;21360;-62
2021/07/19 08:15:16;;;;;;;15.68;12.25;;;;;;;31.45;51.08;99813.59;1761384;80;21103;-62
2021/07/19 08:17:43;;;;;;;18.25;14.47;;;;;;;31.53;50.83;99812.25;1771452;80;21723;-62
2021/07/19 08:20:12;;;;;;;17.52;11.95;;;;;;;31.60;51.24;99818.20;1751028;80;21099;-61
2021/07/19 08:22:38;;;;;;;15.58;12.07;;;;;;;31.66;50.85;99810.86;1757032;80;21742;-62
2021/07/19 08:25:05;;;;;;;13.30;11.38;;;;;;;31.74;51.18;99822.53;1767146;80;21008;-62
2021/07/19 08:27:31;;;;;;;18.75;11.55;;;;;;;31.84;50.88;99831.17;1733929;80;21120;-62
2021/07/19 08:29:57;;;;;;;16.57;11.38;;;;;;;31.95;51.15;99836.05;1708281;82;21110;-62
2021/07/19 08:32:24;;;;;;;13.72;10.43;;;;;;;32.04;49.53;99835.72;1754339;80;21067;-62
2021/07/19 08:34:51;;;;;;;13.28;9.15;;;;;;;32.07;49.01;99826.23;1768043;80;21653;-63
2021/07/19 08:37:18;;;;;;;13.35;9.55;;;;;;;32.07;48.54;99821.59;1752040;79;21600;-62
2021/07/19 08:39:44;;;;;;;16.00;9.68;;;;;;;32.01;48.44;99831.66;1759154;80;21070;-62
2021/07/19 08:42:15;;;;;;;11.00;7.87;;;;;;;31.97;49.36;99845.55;1761397;79;21082;-63
2021/07/19 08:44:41;;;;;;;10.93;8.23;;;;;;;31.87;48.96;99851.58;1762375;80;23286;-61
2021/07/19 08:47:13;;;;;;;13.25;8.50;;;;;;;31.75;48.14;99858.14;1758515;80;21042;-61
2021/07/19 08:49:41;;;;;;;13.48;9.90;;;;;;;31.64;48.46;99861.44;1756484;80;21045;-62
2021/07/19 08:52:07;;;;;;;13.38;8.30;;;;;;;31.54;48.71;99861.47;1762572;80;21100;-62
2021/07/19 08:54:36;;;;;;;13.05;9.18;;;;;;;31.44;48.71;99863.63;1759860;80;21059;-63
2021/07/19 08:57:04;;;;;;;14.15;8.58;;;;;;;31.36;49.40;99861.46;1767882;80;21127;-70
2021/07/19 08:59:31;;;;;;;16.40;9.53;;;;;;;31.28;50.30;99865.53;1758758;79;21054;-74
2021/07/19 09:02:01;;;;;;;15.10;8.98;;;;;;;31.19;51.39;99880.77;1750589;80;20995;-68
2021/07/19 09:04:26;;;;;;;14.13;9.18;;;;;;;31.10;51.63;99878.31;1763654;79;21038;-62
2021/07/19 09:06:54;;;;;;;14.68;8.33;;;;;;;31.00;49.97;99895.45;1752192;80;21079;-64
2021/07/19 09:09:29;;;;;;;13.80;6.33;;;;;;;30.82;47.01;99956.50;1745289;80;21687;-62
2021/07/19 09:11:58;;;;;;;20.32;5.95;;;;;;;30.14;46.39;99978.17;1758177;79;21074;-65
2021/07/19 09:14:26;;;;;;;13.60;5.95;;;;;;;29.19;48.42;99988.27;1760407;80;21084;-65
2021/07/19 09:16:53;;;;;;;19.42;5.70;;;;;;;28.36;49.87;100044.59;1755071;79;21095;-60
2021/07/19 09:19:22;;;;;;;17.85;5.30;;;;;;;27.59;51.06;100055.55;1727852;80;21141;-62
2021/07/19 09:21:57;;;;;;;9.43;4.92;;;;;;;27.01;52.80;100093.30;1750878;80;21110;-64
2021/07/19 09:24:27;;;;;;;8.23;3.62;;;;;;;26.46;56.99;100130.12;1748870;80;21646;-66
2021/07/19 09:26:54;;;;;;;10.28;4.65;;;;;;;25.63;61.46;100146.09;1741540;80;21083;-66
2021/07/19 09:29:22;;;;;;;9.48;3.98;;;;;;;24.86;66.43;100193.64;1767490;79;21113;-67
2021/07/19 09:31:57;;;;;;;7.30;3.35;;;;;;;24.43;69.50;100191.73;1749360;80;21044;-65
2021/07/19 09:35:52;;;;;;;6.42;3.05;;;;;;;;;;1793267;78;22649;-75
2021/07/19 09:38:18;;;;;;;5.30;2.37;;;;;;;;;;1768419;80;21035;-74
2021/07/19 09:42:17;;;;;;;5.33;2.08;;;;;;;;;;1781377;78;23477;-74
2021/07/19 09:44:52;;;;;;;6.20;2.37;;;;;;;;;;1725571;81;21086;-73
2021/07/19 09:47:18;;;;;;;5.45;2.22;;;;;;;;;;1747731;81;21119;-72
2021/07/19 09:49:46;;;;;;;6.50;1.67;;;;;;;;;;1751759;81;21020;-73
2021/07/19 09:52:13;;;;;;;4.60;2.02;;;;;;;;;;1754146;81;21642;-74
2021/07/19 09:54:43;;;;;;;6.10;1.70;;;;;;;;;;1751657;81;20972;-73
2021/07/19 09:57:10;;;;;;;4.78;1.85;;;;;;;;;;1732040;81;20970;-74
2021/07/19 09:59:37;;;;;;;5.65;2.10;;;;;;;;;;1754947;81;21200;-73
2021/07/19 10:02:06;;;;;;;4.10;1.82;;;;;;;;;;1757593;80;21013;-73
2021/07/19 10:04:36;;;;;;;5.67;1.87;;;;;;;;;;1752386;81;21089;-74
2021/07/19 10:07:02;;;;;;;6.10;1.98;;;;;;;;;;1751911;81;21068;-70
2021/07/19 10:09:28;;;;;;;6.37;1.95;;;;;;;;;;1735966;81;21085;-73
2021/07/19 10:11:55;;;;;;;7.75;2.37;;;;;;;;;;1747876;81;21783;-72
2021/07/19 10:14:28;;;;;;;4.42;1.90;;;;;;;;;;1740341;80;21179;-70
2021/07/19 10:16:56;;;;;;;5.42;2.33;;;;;;;;;;1734886;81;21094;-74
2021/07/19 10:19:22;;;;;;;5.12;2.72;;;;;;;;;;1751943;81;21305;-74
2021/07/19 10:21:49;;;;;;;4.97;2.02;;;;;;;;;;1752302;81;21643;-73
2021/07/19 10:24:15;;;;;;;6.85;2.08;;;;;;;;;;1748308;81;21285;-74
2021/07/19 10:26:41;;;;;;;6.05;1.98;;;;;;;;;;1746698;81;21355;-74
2021/07/19 10:29:08;;;;;;;6.60;2.35;;;;;;;;;;1746329;80;21070;-73
2021/07/19 10:31:35;;;;;;;5.37;2.30;;;;;;;;;;1720385;81;21059;-74
2021/07/19 10:34:02;;;;;;;4.67;2.17;;;;;;;;;;1714382;81;21122;-73
2021/07/19 10:36:38;;;;;;;5.83;2.15;;;;;;;;;;1703777;83;21081;-73
2021/07/19 10:39:13;;;;;;;6.65;2.58;;;;;;;;;;1720780;81;21034;-73
2021/07/19 10:41:39;;;;;;;5.20;2.07;;;;;;;;;;1722923;81;21060;-74
2021/07/19 10:44:08;;;;;;;6.53;2.72;;;;;;;;;;1721490;81;21545;-73
2021/07/19 10:46:34;;;;;;;5.42;2.45;;;;;;;;;;1721060;81;21046;-75
2021/07/19 10:49:08;;;;;;;7.22;2.80;;;;;;;;;;1719626;81;22123;-74
2021/07/19 10:51:46;;;;;;;6.40;2.67;;;;;;;;;;1685041;83;21528;-72
2021/07/19 10:54:26;;;;;;;4.60;2.35;;;;;;;;;;1649122;85;21309;-74
2021/07/19 10:56:55;;;;;;;8.13;2.62;;;;;;;;;;1666732;84;21071;-75
2021/07/19 10:59:27;;;;;;;6.85;2.70;;;;;;;;;;1658509;85;22278;-75
2021/07/19 11:01:54;;;;;;;6.78;3.67;;;;;;;;;;1664365;84;22521;-75
2021/07/19 11:04:22;;;;;;;7.15;4.05;;;;;;;;;;1666060;84;21064;-75
2021/07/19 11:06:59;;;;;;;8.40;4.15;;;;;;;;;;1629832;85;21586;-73
2021/07/19 11:09:34;;;;;;;8.85;5.05;;;;;;;;;;1644043;85;21071;-74
2021/07/19 11:12:11;;;;;;;14.60;6.10;;;;;;;;;;1665046;84;21046;-74
2021/07/19 11:14:45;;;;;;;7.87;4.80;;;;;;;;;;1654969;84;21692;-75
2021/07/19 11:17:12;;;;;;;12.63;5.67;;;;;;;;;;1645960;85;21091;-71
2021/07/19 11:19:41;;;;;;;8.65;5.47;;;;;;;;;;1664051;85;21044;-75
2021/07/19 11:22:13;;;;;;;10.35;5.92;;;;;;;;;;1647066;85;21083;-76
2021/07/19 11:24:42;;;;;;;10.63;6.65;;;;;;;;;;1621427;84;21573;-74
2021/07/19 11:27:08;;;;;;;10.45;5.92;;;;;;;;;;1655467;84;21268;-76
2021/07/19 11:29:36;;;;;;;8.20;5.17;;;;;;;;;;1659530;84;21063;-75
2021/07/19 11:32:18;;;;;;;9.80;6.45;;;;;;;;;;1659030;85;21103;-74
2021/07/19 11:34:46;;;;;;;11.30;6.17;;;;;;;;;;1658452;85;21122;-75
2021/07/19 11:37:12;;;;;;;12.00;7.05;;;;;;;;;;1657805;84;21067;-74
2021/07/19 11:39:50;;;;;;;9.30;6.50;;;;;;;;;;1657116;84;21626;-75
2021/07/19 11:42:41;;;;;;;10.30;5.30;;;;;;;;;;1665859;84;21652;-74
2021/07/19 11:45:08;;;;;;;12.98;6.15;;;;;;;;;;1660041;84;21083;-75
2021/07/19 11:47:41;;;;;;;9.60;6.45;;;;;;;;;;1724283;81;21560;-75
2021/07/19 11:50:08;;;;;;;13.93;6.78;;;;;;;;;;1715098;81;21075;-75
2021/07/19 11:52:34;;;;;;;11.25;7.22;;;;;;;;;;1695471;83;21051;-75
2021/07/19 11:55:00;;;;;;;10.05;6.50;;;;;;;;;;1698676;82;21098;-73
2021/07/19 11:57:26;;;;;;;10.35;6.35;;;;;;;;;;1682352;83;21002;-73
2021/07/19 11:59:52;;;;;;;11.28;6.00;;;;;;;;;;1672341;83;21043;-73
2021/07/19 12:02:25;;;;;;;10.23;6.55;;;;;;;;;;1719448;81;21519;-73
2021/07/19 12:04:52;;;;;;;11.90;6.67;;;;;;;;;;1719504;83;21552;-70
2021/07/19 12:07:18;;;;;;;9.80;6.55;;;;;;;;;;1716684;81;21063;-75
2021/07/19 12:09:45;;;;;;;11.12;6.75;;;;;;;;;;1714827;81;21031;-74